sensor_id;sensor_type;location;lat;lon;timestamp;temperature;humidity
42913;DHT22;50720;54.324;18.558;2023-12-07T00:00:15;-2.20;99.90
42913;DHT22;50720;54.324;18.558;2023-12-07T00:02:59;-2.20;99.90
42913;DHT22;50720;54.324;18.558;2023-12-07T00:05:43;-2.20;99.90
42913;DHT22;50720;54.324;18.558;2023-12-07T00:08:28;-2.20;99.90
42913;DHT22;50720;54.324;18.558;2023-12-07T00:11:11;-2.20;99.90
42913;DHT22;50720;54.324;18.558;2023-12-07T00:13:54;-2.30;99.90
42913;DHT22;50720;54.324;18.558;2023-12-07T00:16:38;-2.20;99.90
42913;DHT22;50720;54.324;18.558;2023-12-07T00:19:21;-2.10;99.90
42913;DHT22;50720;54.324;18.558;2023-12-07T00:22:05;-2.20;99.90
42913;DHT22;50720;54.324;18.558;2023-12-07T00:24:50;-2.20;99.90
42913;DHT22;50720;54.324;18.558;2023-12-07T00:30:17;-2.20;99.90
42913;DHT22;50720;54.324;18.558;2023-12-07T00:33:01;-2.10;99.90
42913;DHT22;50720;54.324;18.558;2023-12-07T00:35:44;-2.20;99.90
42913;DHT22;50720;54.324;18.558;2023-12-07T00:38:28;-2.10;99.90
42913;DHT22;50720;54.324;18.558;2023-12-07T00:41:12;-2.20;99.90
42913;DHT22;50720;54.324;18.558;2023-12-07T00:43:56;-2.20;99.90
42913;DHT22;50720;54.324;18.558;2023-12-07T00:46:39;-2.20;99.90
42913;DHT22;50720;54.324;18.558;2023-12-07T00:49:23;-2.20;99.90
42913;DHT22;50720;54.324;18.558;2023-12-07T00:52:06;-2.20;99.90
42913;DHT22;50720;54.324;18.558;2023-12-07T00:54:50;-2.20;99.90
42913;DHT22;50720;54.324;18.558;2023-12-07T00:57:36;-2.20;99.90
42913;DHT22;50720;54.324;18.558;2023-12-07T01:00:19;-2.10;99.90
42913;DHT22;50720;54.324;18.558;2023-12-07T01:03:02;-2.20;99.90
42913;DHT22;50720;54.324;18.558;2023-12-07T01:05:46;-2.10;99.90
42913;DHT22;50720;54.324;18.558;2023-12-07T01:08:30;-2.20;99.90
42913;DHT22;50720;54.324;18.558;2023-12-07T01:11:13;-2.10;99.90
42913;DHT22;50720;54.324;18.558;2023-12-07T01:13:58;-2.10;99.90
42913;DHT22;50720;54.324;18.558;2023-12-07T01:16:42;-2.10;99.90
42913;DHT22;50720;54.324;18.558;2023-12-07T01:19:26;-2.10;99.90
42913;DHT22;50720;54.324;18.558;2023-12-07T01:22:09;-2.10;99.90
42913;DHT22;50720;54.324;18.558;2023-12-07T01:24:53;-2.10;99.90
42913;DHT22;50720;54.324;18.558;2023-12-07T01:27:36;-2.10;99.90
42913;DHT22;50720;54.324;18.558;2023-12-07T01:30:22;-2.10;99.90
42913;DHT22;50720;54.324;18.558;2023-12-07T01:33:05;-2.10;99.90
42913;DHT22;50720;54.324;18.558;2023-12-07T01:35:49;-2.10;99.90
42913;DHT22;50720;54.324;18.558;2023-12-07T01:38:32;-2.00;99.90
42913;DHT22;50720;54.324;18.558;2023-12-07T01:41:16;-2.10;99.90
42913;DHT22;50720;54.324;18.558;2023-12-07T01:44:00;-2.00;99.90
42913;DHT22;50720;54.324;18.558;2023-12-07T01:46:45;-2.00;99.90
42913;DHT22;50720;54.324;18.558;2023-12-07T01:49:29;-2.10;99.90
42913;DHT22;50720;54.324;18.558;2023-12-07T01:52:13;-2.10;99.90
42913;DHT22;50720;54.324;18.558;2023-12-07T01:54:56;-2.00;99.90
42913;DHT22;50720;54.324;18.558;2023-12-07T01:57:41;-2.00;99.90
42913;DHT22;50720;54.324;18.558;2023-12-07T02:00:26;-2.00;99.90
42913;DHT22;50720;54.324;18.558;2023-12-07T02:03:12;-2.00;99.90
42913;DHT22;50720;54.324;18.558;2023-12-07T02:05:56;-2.00;99.90
42913;DHT22;50720;54.324;18.558;2023-12-07T02:08:41;-2.00;99.90
42913;DHT22;50720;54.324;18.558;2023-12-07T02:11:24;-2.00;99.90
42913;DHT22;50720;54.324;18.558;2023-12-07T02:14:08;-2.00;99.90
42913;DHT22;50720;54.324;18.558;2023-12-07T02:16:56;-1.90;99.90
42913;DHT22;50720;54.324;18.558;2023-12-07T02:19:59;-1.90;99.90
42913;DHT22;50720;54.324;18.558;2023-12-07T02:22:48;-2.00;99.90
42913;DHT22;50720;54.324;18.558;2023-12-07T02:25:37;-2.00;99.90
42913;DHT22;50720;54.324;18.558;2023-12-07T02:28:25;-2.00;99.90
42913;DHT22;50720;54.324;18.558;2023-12-07T02:31:08;-2.00;99.90
42913;DHT22;50720;54.324;18.558;2023-12-07T02:33:52;-2.00;99.90
42913;DHT22;50720;54.324;18.558;2023-12-07T02:36:38;-1.90;99.90
42913;DHT22;50720;54.324;18.558;2023-12-07T02:39:23;-1.90;99.90
42913;DHT22;50720;54.324;18.558;2023-12-07T02:42:08;-1.90;99.90
42913;DHT22;50720;54.324;18.558;2023-12-07T02:44:53;-1.90;99.90
42913;DHT22;50720;54.324;18.558;2023-12-07T02:47:37;-1.90;99.90
42913;DHT22;50720;54.324;18.558;2023-12-07T02:50:21;-1.90;99.90
42913;DHT22;50720;54.324;18.558;2023-12-07T02:53:05;-1.90;99.90
42913;DHT22;50720;54.324;18.558;2023-12-07T02:55:48;-1.90;99.90
42913;DHT22;50720;54.324;18.558;2023-12-07T02:58:32;-1.90;99.90
42913;DHT22;50720;54.324;18.558;2023-12-07T03:01:17;-1.90;99.90
42913;DHT22;50720;54.324;18.558;2023-12-07T03:04:01;-1.90;99.90
42913;DHT22;50720;54.324;18.558;2023-12-07T03:06:44;-1.80;99.90
42913;DHT22;50720;54.324;18.558;2023-12-07T03:09:28;-1.90;99.90
42913;DHT22;50720;54.324;18.558;2023-12-07T03:12:11;-1.90;99.90
42913;DHT22;50720;54.324;18.558;2023-12-07T03:14:55;-1.90;99.90
42913;DHT22;50720;54.324;18.558;2023-12-07T03:17:39;-1.90;99.90
42913;DHT22;50720;54.324;18.558;2023-12-07T03:20:23;-1.90;99.90
42913;DHT22;50720;54.324;18.558;2023-12-07T03:23:07;-1.80;99.90
42913;DHT22;50720;54.324;18.558;2023-12-07T03:25:50;-1.90;99.90
42913;DHT22;50720;54.324;18.558;2023-12-07T03:28:34;-1.90;99.90
42913;DHT22;50720;54.324;18.558;2023-12-07T03:31:17;-1.90;99.90
42913;DHT22;50720;54.324;18.558;2023-12-07T03:34:02;-1.80;99.90
42913;DHT22;50720;54.324;18.558;2023-12-07T03:36:48;-1.90;99.90
42913;DHT22;50720;54.324;18.558;2023-12-07T03:39:32;-1.90;99.90
42913;DHT22;50720;54.324;18.558;2023-12-07T03:42:16;-1.90;99.90
42913;DHT22;50720;54.324;18.558;2023-12-07T03:45:19;-1.90;99.90
42913;DHT22;50720;54.324;18.558;2023-12-07T03:48:03;-1.90;99.90
42913;DHT22;50720;54.324;18.558;2023-12-07T03:50:48;-1.90;99.90
42913;DHT22;50720;54.324;18.558;2023-12-07T03:53:32;-1.90;99.90
42913;DHT22;50720;54.324;18.558;2023-12-07T03:56:23;-1.90;99.90
42913;DHT22;50720;54.324;18.558;2023-12-07T03:59:06;-1.90;99.90
42913;DHT22;50720;54.324;18.558;2023-12-07T04:01:50;-1.90;99.90
42913;DHT22;50720;54.324;18.558;2023-12-07T04:04:34;-1.90;99.90
42913;DHT22;50720;54.324;18.558;2023-12-07T04:07:19;-1.90;99.90
42913;DHT22;50720;54.324;18.558;2023-12-07T04:10:02;-1.90;99.90
42913;DHT22;50720;54.324;18.558;2023-12-07T04:12:48;-1.90;99.90
42913;DHT22;50720;54.324;18.558;2023-12-07T04:15:32;-1.90;99.90
42913;DHT22;50720;54.324;18.558;2023-12-07T04:18:15;-1.90;99.90
42913;DHT22;50720;54.324;18.558;2023-12-07T04:20:59;-1.90;99.90
42913;DHT22;50720;54.324;18.558;2023-12-07T04:23:43;-1.90;99.90
42913;DHT22;50720;54.324;18.558;2023-12-07T04:26:27;-1.80;99.90
42913;DHT22;50720;54.324;18.558;2023-12-07T04:29:11;-1.90;99.90
42913;DHT22;50720;54.324;18.558;2023-12-07T04:31:54;-1.90;99.90
42913;DHT22;50720;54.324;18.558;2023-12-07T04:34:38;-1.90;99.90
42913;DHT22;50720;54.324;18.558;2023-12-07T04:37:21;-1.90;99.90
42913;DHT22;50720;54.324;18.558;2023-12-07T04:40:09;-1.90;99.90
42913;DHT22;50720;54.324;18.558;2023-12-07T04:45:37;-1.80;99.90
42913;DHT22;50720;54.324;18.558;2023-12-07T04:48:21;-1.80;99.90
42913;DHT22;50720;54.324;18.558;2023-12-07T04:51:04;-1.80;99.90
42913;DHT22;50720;54.324;18.558;2023-12-07T04:53:48;-1.90;99.90
42913;DHT22;50720;54.324;18.558;2023-12-07T04:56:33;-1.80;99.90
42913;DHT22;50720;54.324;18.558;2023-12-07T04:59:16;-1.80;99.90
42913;DHT22;50720;54.324;18.558;2023-12-07T05:02:00;-1.80;99.90
42913;DHT22;50720;54.324;18.558;2023-12-07T05:04:44;-1.80;99.90
42913;DHT22;50720;54.324;18.558;2023-12-07T05:07:28;-1.80;99.90
42913;DHT22;50720;54.324;18.558;2023-12-07T05:10:12;-1.80;99.90
42913;DHT22;50720;54.324;18.558;2023-12-07T05:12:57;-1.90;99.90
42913;DHT22;50720;54.324;18.558;2023-12-07T05:15:41;-1.80;99.90
42913;DHT22;50720;54.324;18.558;2023-12-07T05:18:25;-1.80;99.90
42913;DHT22;50720;54.324;18.558;2023-12-07T05:21:08;-1.80;99.90
42913;DHT22;50720;54.324;18.558;2023-12-07T05:23:52;-1.80;99.90
42913;DHT22;50720;54.324;18.558;2023-12-07T05:26:35;-1.80;99.90
42913;DHT22;50720;54.324;18.558;2023-12-07T05:29:20;-1.80;99.90
42913;DHT22;50720;54.324;18.558;2023-12-07T05:32:04;-1.80;99.90
42913;DHT22;50720;54.324;18.558;2023-12-07T05:34:48;-1.90;99.90
42913;DHT22;50720;54.324;18.558;2023-12-07T05:37:32;-1.80;99.90
42913;DHT22;50720;54.324;18.558;2023-12-07T05:40:16;-1.90;99.90
42913;DHT22;50720;54.324;18.558;2023-12-07T05:43:00;-1.80;99.90
42913;DHT22;50720;54.324;18.558;2023-12-07T05:45:45;-1.80;99.90
42913;DHT22;50720;54.324;18.558;2023-12-07T05:48:29;-1.80;99.90
42913;DHT22;50720;54.324;18.558;2023-12-07T05:51:13;-1.80;99.90
42913;DHT22;50720;54.324;18.558;2023-12-07T05:53:57;-1.80;99.90
42913;DHT22;50720;54.324;18.558;2023-12-07T05:56:40;-1.80;99.90
42913;DHT22;50720;54.324;18.558;2023-12-07T05:59:25;-1.80;99.90
42913;DHT22;50720;54.324;18.558;2023-12-07T06:02:10;-1.80;99.90
42913;DHT22;50720;54.324;18.558;2023-12-07T06:04:53;-1.80;99.90
42913;DHT22;50720;54.324;18.558;2023-12-07T06:10:21;-1.90;99.90
42913;DHT22;50720;54.324;18.558;2023-12-07T06:13:05;-1.90;99.90
42913;DHT22;50720;54.324;18.558;2023-12-07T06:15:49;-1.90;99.90
42913;DHT22;50720;54.324;18.558;2023-12-07T06:18:33;-1.80;99.90
42913;DHT22;50720;54.324;18.558;2023-12-07T06:21:17;-1.80;99.90
42913;DHT22;50720;54.324;18.558;2023-12-07T06:24:01;-1.90;99.90
42913;DHT22;50720;54.324;18.558;2023-12-07T06:26:45;-1.90;99.90
42913;DHT22;50720;54.324;18.558;2023-12-07T06:29:29;-1.90;99.90
42913;DHT22;50720;54.324;18.558;2023-12-07T06:32:12;-1.90;99.90
42913;DHT22;50720;54.324;18.558;2023-12-07T06:34:57;-1.90;99.90
42913;DHT22;50720;54.324;18.558;2023-12-07T06:37:41;-1.80;99.90
42913;DHT22;50720;54.324;18.558;2023-12-07T06:43:08;-1.80;99.90
42913;DHT22;50720;54.324;18.558;2023-12-07T06:45:52;-1.80;99.90
42913;DHT22;50720;54.324;18.558;2023-12-07T06:48:36;-1.80;99.90
42913;DHT22;50720;54.324;18.558;2023-12-07T06:51:21;-1.80;99.90
42913;DHT22;50720;54.324;18.558;2023-12-07T06:54:04;-1.80;99.90
42913;DHT22;50720;54.324;18.558;2023-12-07T06:56:47;-1.80;99.90
42913;DHT22;50720;54.324;18.558;2023-12-07T06:59:31;-1.70;99.90
42913;DHT22;50720;54.324;18.558;2023-12-07T07:02:15;-1.80;99.90
42913;DHT22;50720;54.324;18.558;2023-12-07T07:04:58;-1.80;99.90
42913;DHT22;50720;54.324;18.558;2023-12-07T07:07:43;-1.80;99.90
42913;DHT22;50720;54.324;18.558;2023-12-07T07:10:27;-1.80;99.90
42913;DHT22;50720;54.324;18.558;2023-12-07T07:13:10;-1.80;99.90
42913;DHT22;50720;54.324;18.558;2023-12-07T07:15:57;-1.80;99.90
42913;DHT22;50720;54.324;18.558;2023-12-07T07:18:40;-1.70;99.90
42913;DHT22;50720;54.324;18.558;2023-12-07T07:21:24;-1.80;99.90
42913;DHT22;50720;54.324;18.558;2023-12-07T07:24:09;-1.70;99.90
42913;DHT22;50720;54.324;18.558;2023-12-07T07:26:53;-1.70;99.90
42913;DHT22;50720;54.324;18.558;2023-12-07T07:29:36;-1.70;99.90
42913;DHT22;50720;54.324;18.558;2023-12-07T07:32:20;-1.70;99.90
42913;DHT22;50720;54.324;18.558;2023-12-07T07:35:04;-1.70;99.90
42913;DHT22;50720;54.324;18.558;2023-12-07T07:37:48;-1.70;99.90
42913;DHT22;50720;54.324;18.558;2023-12-07T07:40:32;-1.70;99.90
42913;DHT22;50720;54.324;18.558;2023-12-07T07:43:16;-1.60;99.90
42913;DHT22;50720;54.324;18.558;2023-12-07T07:46:00;-1.50;99.90
42913;DHT22;50720;54.324;18.558;2023-12-07T07:48:43;-1.50;99.90
42913;DHT22;50720;54.324;18.558;2023-12-07T07:51:27;-1.50;99.90
42913;DHT22;50720;54.324;18.558;2023-12-07T07:54:11;-1.50;99.90
42913;DHT22;50720;54.324;18.558;2023-12-07T07:56:56;-1.40;99.90
42913;DHT22;50720;54.324;18.558;2023-12-07T07:59:41;-1.40;99.90
42913;DHT22;50720;54.324;18.558;2023-12-07T08:05:09;-1.40;99.90
42913;DHT22;50720;54.324;18.558;2023-12-07T08:07:53;-1.40;99.90
42913;DHT22;50720;54.324;18.558;2023-12-07T08:10:37;-1.40;99.90
42913;DHT22;50720;54.324;18.558;2023-12-07T08:13:39;-1.40;99.90
42913;DHT22;50720;54.324;18.558;2023-12-07T08:16:22;-1.40;99.90
42913;DHT22;50720;54.324;18.558;2023-12-07T08:19:06;-1.30;99.90
42913;DHT22;50720;54.324;18.558;2023-12-07T08:21:50;-1.30;99.90
42913;DHT22;50720;54.324;18.558;2023-12-07T08:24:34;-1.30;99.90
42913;DHT22;50720;54.324;18.558;2023-12-07T08:27:19;-1.30;99.90
42913;DHT22;50720;54.324;18.558;2023-12-07T08:30:05;-1.40;99.90
42913;DHT22;50720;54.324;18.558;2023-12-07T08:32:51;-1.40;99.90
42913;DHT22;50720;54.324;18.558;2023-12-07T08:35:35;-1.40;99.90
42913;DHT22;50720;54.324;18.558;2023-12-07T08:38:19;-1.40;99.90
42913;DHT22;50720;54.324;18.558;2023-12-07T08:41:04;-1.30;99.90
42913;DHT22;50720;54.324;18.558;2023-12-07T08:43:47;-1.30;99.90
42913;DHT22;50720;54.324;18.558;2023-12-07T08:46:33;-1.20;99.90
42913;DHT22;50720;54.324;18.558;2023-12-07T08:49:17;-1.10;99.90
42913;DHT22;50720;54.324;18.558;2023-12-07T08:52:00;-1.10;99.90
42913;DHT22;50720;54.324;18.558;2023-12-07T08:55:04;-1.20;99.90
42913;DHT22;50720;54.324;18.558;2023-12-07T08:57:48;-1.10;99.90
42913;DHT22;50720;54.324;18.558;2023-12-07T09:00:32;-1.20;99.90
42913;DHT22;50720;54.324;18.558;2023-12-07T09:03:17;-1.20;99.90
42913;DHT22;50720;54.324;18.558;2023-12-07T09:06:00;-1.20;99.90
42913;DHT22;50720;54.324;18.558;2023-12-07T09:08:44;-1.20;99.90
42913;DHT22;50720;54.324;18.558;2023-12-07T09:11:28;-1.10;99.90
42913;DHT22;50720;54.324;18.558;2023-12-07T09:14:12;-1.10;99.90
42913;DHT22;50720;54.324;18.558;2023-12-07T09:16:55;-1.10;99.90
42913;DHT22;50720;54.324;18.558;2023-12-07T09:19:40;-1.10;99.90
42913;DHT22;50720;54.324;18.558;2023-12-07T09:22:25;-1.00;99.90
42913;DHT22;50720;54.324;18.558;2023-12-07T09:28:03;-1.00;99.90
42913;DHT22;50720;54.324;18.558;2023-12-07T09:30:47;-1.00;99.90
42913;DHT22;50720;54.324;18.558;2023-12-07T09:33:30;-1.00;99.90
42913;DHT22;50720;54.324;18.558;2023-12-07T09:36:18;-1.00;99.90
42913;DHT22;50720;54.324;18.558;2023-12-07T09:39:03;-1.00;99.90
42913;DHT22;50720;54.324;18.558;2023-12-07T09:41:46;-0.90;99.90
42913;DHT22;50720;54.324;18.558;2023-12-07T09:44:30;-0.90;99.90
42913;DHT22;50720;54.324;18.558;2023-12-07T09:47:14;-0.90;99.90
42913;DHT22;50720;54.324;18.558;2023-12-07T09:50:09;-0.80;99.90
42913;DHT22;50720;54.324;18.558;2023-12-07T09:52:57;-0.80;99.90
42913;DHT22;50720;54.324;18.558;2023-12-07T09:55:49;-0.80;99.90
42913;DHT22;50720;54.324;18.558;2023-12-07T09:58:33;-0.80;99.90
42913;DHT22;50720;54.324;18.558;2023-12-07T10:01:28;-0.80;99.90
42913;DHT22;50720;54.324;18.558;2023-12-07T10:04:15;-0.70;99.90
42913;DHT22;50720;54.324;18.558;2023-12-07T10:06:59;-0.70;99.90
42913;DHT22;50720;54.324;18.558;2023-12-07T10:09:44;-0.70;99.90
42913;DHT22;50720;54.324;18.558;2023-12-07T10:15:12;-0.80;99.90
42913;DHT22;50720;54.324;18.558;2023-12-07T10:17:57;-0.70;99.90
42913;DHT22;50720;54.324;18.558;2023-12-07T10:20:45;-0.60;99.90
42913;DHT22;50720;54.324;18.558;2023-12-07T10:23:30;-0.70;99.90
42913;DHT22;50720;54.324;18.558;2023-12-07T10:26:17;-0.60;99.90
42913;DHT22;50720;54.324;18.558;2023-12-07T10:29:04;-0.60;99.90
42913;DHT22;50720;54.324;18.558;2023-12-07T10:31:51;-0.60;99.90
42913;DHT22;50720;54.324;18.558;2023-12-07T10:34:42;-0.40;99.90
42913;DHT22;50720;54.324;18.558;2023-12-07T10:37:26;-0.50;99.90
42913;DHT22;50720;54.324;18.558;2023-12-07T10:40:11;-0.50;99.90
42913;DHT22;50720;54.324;18.558;2023-12-07T10:42:57;-0.50;99.90
42913;DHT22;50720;54.324;18.558;2023-12-07T10:45:41;-0.40;99.90
42913;DHT22;50720;54.324;18.558;2023-12-07T10:48:27;-0.50;99.90
42913;DHT22;50720;54.324;18.558;2023-12-07T10:51:17;-0.30;99.90
42913;DHT22;50720;54.324;18.558;2023-12-07T10:54:03;-0.40;99.90
42913;DHT22;50720;54.324;18.558;2023-12-07T10:56:49;-0.40;99.90
42913;DHT22;50720;54.324;18.558;2023-12-07T10:59:35;-0.40;99.90
42913;DHT22;50720;54.324;18.558;2023-12-07T11:02:22;-0.20;99.90
42913;DHT22;50720;54.324;18.558;2023-12-07T11:05:07;-0.20;99.90
42913;DHT22;50720;54.324;18.558;2023-12-07T11:07:57;-0.30;99.90
42913;DHT22;50720;54.324;18.558;2023-12-07T11:10:47;-0.30;99.90
42913;DHT22;50720;54.324;18.558;2023-12-07T11:13:36;-0.50;99.90
42913;DHT22;50720;54.324;18.558;2023-12-07T11:16:30;-0.50;99.90
42913;DHT22;50720;54.324;18.558;2023-12-07T11:19:46;-0.50;99.90
42913;DHT22;50720;54.324;18.558;2023-12-07T11:22:31;-0.40;99.90
42913;DHT22;50720;54.324;18.558;2023-12-07T11:25:15;-0.50;99.90
42913;DHT22;50720;54.324;18.558;2023-12-07T11:28:01;-0.40;99.90
42913;DHT22;50720;54.324;18.558;2023-12-07T11:30:46;-0.50;99.90
42913;DHT22;50720;54.324;18.558;2023-12-07T11:33:31;-0.40;99.90
42913;DHT22;50720;54.324;18.558;2023-12-07T11:36:15;-0.50;99.90
42913;DHT22;50720;54.324;18.558;2023-12-07T11:39:16;-0.40;99.90
42913;DHT22;50720;54.324;18.558;2023-12-07T11:42:11;-0.40;99.90
42913;DHT22;50720;54.324;18.558;2023-12-07T11:44:56;-0.30;99.90
42913;DHT22;50720;54.324;18.558;2023-12-07T11:47:39;-0.40;99.90
42913;DHT22;50720;54.324;18.558;2023-12-07T11:50:24;-0.40;99.90
42913;DHT22;50720;54.324;18.558;2023-12-07T11:55:51;-0.40;99.90
42913;DHT22;50720;54.324;18.558;2023-12-07T11:58:36;-0.40;99.90
42913;DHT22;50720;54.324;18.558;2023-12-07T12:01:25;-0.50;99.90
42913;DHT22;50720;54.324;18.558;2023-12-07T12:04:10;-0.30;99.90
42913;DHT22;50720;54.324;18.558;2023-12-07T12:06:55;-0.40;99.90
42913;DHT22;50720;54.324;18.558;2023-12-07T12:09:39;-0.30;99.90
42913;DHT22;50720;54.324;18.558;2023-12-07T12:12:23;-0.40;99.90
42913;DHT22;50720;54.324;18.558;2023-12-07T12:15:07;-0.40;99.90
42913;DHT22;50720;54.324;18.558;2023-12-07T12:17:51;-0.40;99.90
42913;DHT22;50720;54.324;18.558;2023-12-07T12:20:35;-0.40;99.90
42913;DHT22;50720;54.324;18.558;2023-12-07T12:23:21;-0.30;99.90
42913;DHT22;50720;54.324;18.558;2023-12-07T12:26:06;-0.30;99.90
42913;DHT22;50720;54.324;18.558;2023-12-07T12:28:49;-0.40;99.90
42913;DHT22;50720;54.324;18.558;2023-12-07T12:31:34;-0.30;99.90
42913;DHT22;50720;54.324;18.558;2023-12-07T12:34:21;-0.30;99.90
42913;DHT22;50720;54.324;18.558;2023-12-07T12:37:05;-0.40;99.90
42913;DHT22;50720;54.324;18.558;2023-12-07T12:39:50;-0.50;99.90
42913;DHT22;50720;54.324;18.558;2023-12-07T12:42:35;-0.50;99.90
42913;DHT22;50720;54.324;18.558;2023-12-07T12:45:19;-0.50;99.90
42913;DHT22;50720;54.324;18.558;2023-12-07T12:48:04;-0.60;99.90
42913;DHT22;50720;54.324;18.558;2023-12-07T12:50:49;-0.60;99.90
42913;DHT22;50720;54.324;18.558;2023-12-07T12:53:32;-0.50;99.90
42913;DHT22;50720;54.324;18.558;2023-12-07T12:56:18;-0.50;99.90
42913;DHT22;50720;54.324;18.558;2023-12-07T12:59:03;-0.60;99.90
42913;DHT22;50720;54.324;18.558;2023-12-07T13:01:50;-0.60;99.90
42913;DHT22;50720;54.324;18.558;2023-12-07T13:04:34;-0.50;99.90
42913;DHT22;50720;54.324;18.558;2023-12-07T13:07:23;-0.40;99.90
42913;DHT22;50720;54.324;18.558;2023-12-07T13:10:08;-0.40;99.90
42913;DHT22;50720;54.324;18.558;2023-12-07T13:12:54;-0.40;99.90
42913;DHT22;50720;54.324;18.558;2023-12-07T13:15:39;-0.40;99.90
42913;DHT22;50720;54.324;18.558;2023-12-07T13:18:22;-0.40;99.90
42913;DHT22;50720;54.324;18.558;2023-12-07T13:21:06;-0.50;99.90
42913;DHT22;50720;54.324;18.558;2023-12-07T13:23:52;-0.40;99.90
42913;DHT22;50720;54.324;18.558;2023-12-07T13:26:35;-0.40;99.90
42913;DHT22;50720;54.324;18.558;2023-12-07T13:29:22;-0.50;99.90
42913;DHT22;50720;54.324;18.558;2023-12-07T13:32:17;-0.50;99.90
42913;DHT22;50720;54.324;18.558;2023-12-07T13:35:00;-0.50;99.90
42913;DHT22;50720;54.324;18.558;2023-12-07T13:37:44;-0.50;99.90
42913;DHT22;50720;54.324;18.558;2023-12-07T13:40:29;-0.50;99.90
42913;DHT22;50720;54.324;18.558;2023-12-07T13:43:13;-0.50;99.90
42913;DHT22;50720;54.324;18.558;2023-12-07T13:46:00;-0.50;99.90
42913;DHT22;50720;54.324;18.558;2023-12-07T13:51:29;-0.50;99.90
42913;DHT22;50720;54.324;18.558;2023-12-07T13:54:12;-0.50;99.90
42913;DHT22;50720;54.324;18.558;2023-12-07T13:57:16;-0.50;99.90
42913;DHT22;50720;54.324;18.558;2023-12-07T13:59:59;-0.50;99.90
42913;DHT22;50720;54.324;18.558;2023-12-07T14:02:47;-0.40;99.90
42913;DHT22;50720;54.324;18.558;2023-12-07T14:05:31;-0.50;99.90
42913;DHT22;50720;54.324;18.558;2023-12-07T14:08:15;-0.50;99.90
42913;DHT22;50720;54.324;18.558;2023-12-07T14:10:58;-0.60;99.90
42913;DHT22;50720;54.324;18.558;2023-12-07T14:13:42;-0.50;99.90
42913;DHT22;50720;54.324;18.558;2023-12-07T14:16:27;-0.50;99.90
42913;DHT22;50720;54.324;18.558;2023-12-07T14:19:32;-0.50;99.90
42913;DHT22;50720;54.324;18.558;2023-12-07T14:22:17;-0.50;99.90
42913;DHT22;50720;54.324;18.558;2023-12-07T14:25:02;-0.50;99.90
42913;DHT22;50720;54.324;18.558;2023-12-07T14:27:46;-0.50;99.90
42913;DHT22;50720;54.324;18.558;2023-12-07T14:30:31;-0.40;99.90
42913;DHT22;50720;54.324;18.558;2023-12-07T14:33:16;-0.40;99.90
42913;DHT22;50720;54.324;18.558;2023-12-07T14:36:01;-0.40;99.90
42913;DHT22;50720;54.324;18.558;2023-12-07T14:38:46;-0.40;99.90
42913;DHT22;50720;54.324;18.558;2023-12-07T14:41:30;-0.40;99.90
42913;DHT22;50720;54.324;18.558;2023-12-07T14:44:14;-0.50;99.90
42913;DHT22;50720;54.324;18.558;2023-12-07T14:47:04;-0.40;99.90
42913;DHT22;50720;54.324;18.558;2023-12-07T14:49:49;-0.40;99.90
42913;DHT22;50720;54.324;18.558;2023-12-07T14:52:34;-0.50;99.90
42913;DHT22;50720;54.324;18.558;2023-12-07T14:55:18;-0.40;99.90
42913;DHT22;50720;54.324;18.558;2023-12-07T14:58:01;-0.50;99.90
42913;DHT22;50720;54.324;18.558;2023-12-07T15:00:45;-0.50;99.90
42913;DHT22;50720;54.324;18.558;2023-12-07T15:03:28;-0.50;99.90
42913;DHT22;50720;54.324;18.558;2023-12-07T15:06:12;-0.50;99.90
42913;DHT22;50720;54.324;18.558;2023-12-07T15:08:57;-0.50;99.90
42913;DHT22;50720;54.324;18.558;2023-12-07T15:11:41;-0.50;99.90
42913;DHT22;50720;54.324;18.558;2023-12-07T15:14:25;-0.50;99.90
42913;DHT22;50720;54.324;18.558;2023-12-07T15:17:19;-0.50;99.90
42913;DHT22;50720;54.324;18.558;2023-12-07T15:20:02;-0.50;99.90
42913;DHT22;50720;54.324;18.558;2023-12-07T15:22:46;-0.50;99.90
42913;DHT22;50720;54.324;18.558;2023-12-07T15:25:33;-0.40;99.90
42913;DHT22;50720;54.324;18.558;2023-12-07T15:28:16;-0.40;99.90
42913;DHT22;50720;54.324;18.558;2023-12-07T15:31:00;-0.50;99.90
42913;DHT22;50720;54.324;18.558;2023-12-07T15:33:43;-0.50;99.90
42913;DHT22;50720;54.324;18.558;2023-12-07T15:36:27;-0.50;99.90
42913;DHT22;50720;54.324;18.558;2023-12-07T15:39:10;-0.50;99.90
42913;DHT22;50720;54.324;18.558;2023-12-07T15:41:56;-0.50;99.90
42913;DHT22;50720;54.324;18.558;2023-12-07T15:44:40;-0.50;99.90
42913;DHT22;50720;54.324;18.558;2023-12-07T15:47:24;-0.40;99.90
42913;DHT22;50720;54.324;18.558;2023-12-07T15:50:08;-0.40;99.90
42913;DHT22;50720;54.324;18.558;2023-12-07T15:52:53;-0.50;99.90
42913;DHT22;50720;54.324;18.558;2023-12-07T15:55:37;-0.40;99.90
42913;DHT22;50720;54.324;18.558;2023-12-07T15:58:22;-0.50;99.90
42913;DHT22;50720;54.324;18.558;2023-12-07T16:01:06;-0.50;99.90
42913;DHT22;50720;54.324;18.558;2023-12-07T16:03:49;-0.40;99.90
42913;DHT22;50720;54.324;18.558;2023-12-07T16:06:33;-0.40;99.90
42913;DHT22;50720;54.324;18.558;2023-12-07T16:09:16;-0.40;99.90
42913;DHT22;50720;54.324;18.558;2023-12-07T16:12:00;-0.40;99.90
42913;DHT22;50720;54.324;18.558;2023-12-07T16:14:45;-0.40;99.90
42913;DHT22;50720;54.324;18.558;2023-12-07T16:17:29;-0.40;99.90
42913;DHT22;50720;54.324;18.558;2023-12-07T16:20:12;-0.40;99.90
42913;DHT22;50720;54.324;18.558;2023-12-07T16:22:58;-0.40;99.90
42913;DHT22;50720;54.324;18.558;2023-12-07T16:25:42;-0.60;99.90
42913;DHT22;50720;54.324;18.558;2023-12-07T16:28:25;-0.40;99.90
42913;DHT22;50720;54.324;18.558;2023-12-07T16:31:10;-0.40;99.90
42913;DHT22;50720;54.324;18.558;2023-12-07T16:33:53;-0.40;99.90
42913;DHT22;50720;54.324;18.558;2023-12-07T16:36:40;-0.40;99.90
42913;DHT22;50720;54.324;18.558;2023-12-07T16:39:24;-0.40;99.90
42913;DHT22;50720;54.324;18.558;2023-12-07T16:42:08;-0.50;99.90
42913;DHT22;50720;54.324;18.558;2023-12-07T16:44:52;-0.50;99.90
42913;DHT22;50720;54.324;18.558;2023-12-07T16:47:38;-0.50;99.90
42913;DHT22;50720;54.324;18.558;2023-12-07T16:50:21;-0.50;99.90
42913;DHT22;50720;54.324;18.558;2023-12-07T16:53:05;-0.50;99.90
42913;DHT22;50720;54.324;18.558;2023-12-07T16:55:48;-0.50;99.90
42913;DHT22;50720;54.324;18.558;2023-12-07T16:58:32;-0.50;99.90
42913;DHT22;50720;54.324;18.558;2023-12-07T17:01:15;-0.50;99.90
42913;DHT22;50720;54.324;18.558;2023-12-07T17:04:00;-0.50;99.90
42913;DHT22;50720;54.324;18.558;2023-12-07T17:06:45;-0.40;99.90
42913;DHT22;50720;54.324;18.558;2023-12-07T17:09:38;-0.40;99.90
42913;DHT22;50720;54.324;18.558;2023-12-07T17:12:22;-0.40;99.90
42913;DHT22;50720;54.324;18.558;2023-12-07T17:15:07;-0.40;99.90
42913;DHT22;50720;54.324;18.558;2023-12-07T17:17:50;-0.40;99.90
42913;DHT22;50720;54.324;18.558;2023-12-07T17:20:35;-0.40;99.90
42913;DHT22;50720;54.324;18.558;2023-12-07T17:23:19;-0.40;99.90
42913;DHT22;50720;54.324;18.558;2023-12-07T17:26:03;-0.40;99.90
42913;DHT22;50720;54.324;18.558;2023-12-07T17:28:47;-0.30;99.90